createdAt,value
2023-11-05T00:02:18.474Z,7.62
2023-11-05T00:04:45.326Z,7.66
2023-11-05T00:07:12.148Z,7.68
2023-11-05T00:09:38.818Z,7.74
2023-11-05T00:12:05.673Z,7.76
2023-11-05T00:14:34.240Z,7.80
2023-11-05T00:17:01.575Z,7.82
2023-11-05T00:19:28.440Z,7.83
2023-11-05T00:21:55.232Z,7.89
2023-11-05T00:24:22.354Z,7.89
2023-11-05T00:26:49.043Z,7.91
2023-11-05T00:29:16.609Z,7.92
2023-11-05T00:31:44.031Z,7.95
2023-11-05T00:34:10.865Z,7.97
2023-11-05T00:36:37.601Z,7.98
2023-11-05T00:39:04.639Z,7.98
2023-11-05T00:41:31.408Z,8.03
2023-11-05T00:43:58.002Z,8.03
2023-11-05T00:46:24.919Z,8.01
2023-11-05T00:48:51.846Z,8.03
2023-11-05T00:51:18.859Z,8.05
2023-11-05T00:53:45.815Z,8.07
2023-11-05T00:56:12.672Z,8.07
2023-11-05T00:58:39.381Z,8.04
2023-11-05T01:01:06.510Z,8.02
2023-11-05T01:03:33.329Z,7.96
2023-11-05T01:06:00.365Z,7.92
2023-11-05T01:08:26.995Z,7.89
2023-11-05T01:10:53.667Z,7.88
2023-11-05T01:13:20.423Z,7.86
2023-11-05T01:15:47.296Z,7.83
2023-11-05T01:18:16.534Z,7.86
2023-11-05T01:20:43.456Z,7.87
2023-11-05T01:23:10.611Z,7.86
2023-11-05T01:25:37.326Z,7.82
2023-11-05T01:28:04.229Z,7.85
2023-11-05T01:30:30.820Z,7.83
2023-11-05T01:32:57.659Z,7.83
2023-11-05T01:35:24.860Z,7.84
2023-11-05T01:37:51.516Z,7.84
2023-11-05T01:40:18.166Z,7.82
2023-11-05T01:42:45.093Z,7.78
2023-11-05T01:45:11.671Z,7.82
2023-11-05T01:47:38.548Z,7.82
2023-11-05T01:50:05.672Z,7.83
2023-11-05T01:52:33.323Z,7.85
2023-11-05T01:55:00.715Z,7.89
2023-11-05T01:57:27.540Z,7.92
2023-11-05T01:59:54.401Z,7.96
2023-11-05T02:02:22.035Z,7.99
2023-11-05T02:04:49.186Z,8.00
2023-11-05T02:07:16.027Z,8.02
2023-11-05T02:09:43.234Z,8.07
2023-11-05T02:12:12.438Z,8.08
2023-11-05T02:14:38.947Z,8.11
2023-11-05T02:17:05.647Z,8.11
2023-11-05T02:19:32.403Z,8.13
2023-11-05T02:22:12.904Z,8.15
2023-11-05T02:24:42.020Z,8.16
2023-11-05T02:27:08.639Z,8.17
2023-11-05T02:29:35.422Z,8.18
2023-11-05T02:32:04.637Z,8.19
2023-11-05T02:34:32.697Z,8.22
2023-11-05T02:37:00.263Z,8.21
2023-11-05T02:39:27.398Z,8.21
2023-11-05T02:41:54.226Z,8.20
2023-11-05T02:44:21.467Z,8.24
2023-11-05T02:46:51.092Z,8.25
2023-11-05T02:49:17.905Z,8.25
2023-11-05T02:51:45.158Z,8.26
2023-11-05T02:54:11.859Z,8.29
2023-11-05T02:56:38.585Z,8.28
2023-11-05T02:59:05.308Z,8.29
2023-11-05T03:01:31.917Z,8.31
2023-11-05T03:04:00.732Z,8.30
2023-11-05T03:06:27.451Z,8.30
2023-11-05T03:08:54.436Z,8.32
2023-11-05T03:11:21.066Z,8.35
2023-11-05T03:13:47.610Z,8.38
2023-11-05T03:16:14.345Z,8.37
2023-11-05T03:18:41.584Z,8.39
2023-11-05T03:21:08.266Z,8.41
2023-11-05T03:23:34.860Z,8.41
2023-11-05T03:26:01.526Z,8.42
2023-11-05T03:28:28.205Z,8.41
2023-11-05T03:30:54.779Z,8.42
2023-11-05T03:33:21.859Z,8.44
2023-11-05T03:35:50.128Z,8.46
2023-11-05T03:38:16.669Z,8.47
2023-11-05T03:40:43.375Z,8.46
2023-11-05T03:43:10.010Z,8.46
2023-11-05T03:45:36.638Z,8.47
2023-11-05T03:48:03.351Z,8.49
2023-11-05T03:50:29.897Z,8.49
2023-11-05T03:52:57.506Z,8.51
2023-11-05T03:55:24.096Z,8.51
2023-11-05T03:57:50.664Z,8.52
2023-11-05T04:00:17.533Z,8.54
2023-11-05T04:02:44.226Z,8.54
2023-11-05T04:05:10.814Z,8.56
2023-11-05T04:07:37.438Z,8.56
2023-11-05T04:10:05.279Z,8.56
2023-11-05T04:12:32.104Z,8.56
2023-11-05T04:14:58.828Z,8.57
2023-11-05T04:17:25.368Z,8.58
2023-11-05T04:19:53.408Z,8.57
2023-11-05T04:22:20.058Z,8.59
2023-11-05T04:24:46.997Z,8.57
2023-11-05T04:27:13.663Z,8.59
2023-11-05T04:29:43.426Z,8.59
2023-11-05T04:32:11.261Z,8.61
2023-11-05T04:34:39.044Z,8.61
2023-11-05T04:37:06.953Z,8.63
2023-11-05T04:39:33.589Z,8.64
2023-11-05T04:42:00.289Z,8.64
2023-11-05T04:44:26.828Z,8.63
2023-11-05T04:46:53.375Z,8.63
2023-11-05T04:49:20.295Z,8.64
2023-11-05T04:51:46.949Z,8.67
2023-11-05T04:54:13.591Z,8.66
2023-11-05T04:56:40.359Z,8.66
2023-11-05T04:59:06.944Z,8.66
2023-11-05T05:01:33.544Z,8.66
2023-11-05T05:04:04.606Z,8.66
2023-11-05T05:06:31.628Z,8.67
2023-11-05T05:09:00.962Z,8.68
2023-11-05T05:11:27.881Z,8.67
2023-11-05T05:13:54.599Z,8.61
2023-11-05T05:16:21.584Z,8.59
2023-11-05T05:18:51.112Z,8.56
2023-11-05T05:21:17.872Z,8.55
2023-11-05T05:23:44.618Z,8.56
2023-11-05T05:26:11.451Z,8.57
2023-11-05T05:28:38.226Z,8.59
2023-11-05T05:31:05.322Z,8.61
2023-11-05T05:33:33.470Z,8.64
2023-11-05T05:36:05.485Z,8.65
2023-11-05T05:38:35.549Z,8.65
2023-11-05T05:41:02.418Z,8.66
2023-11-05T05:43:31.580Z,8.68
2023-11-05T05:46:00.517Z,8.70
2023-11-05T05:48:27.336Z,8.68
2023-11-05T05:50:53.967Z,8.68
2023-11-05T05:53:20.639Z,8.69
2023-11-05T05:55:48.175Z,8.68
2023-11-05T05:58:20.375Z,8.68
2023-11-05T06:00:46.985Z,8.68
2023-11-05T06:03:13.730Z,8.69
2023-11-05T06:05:40.640Z,8.70
2023-11-05T06:08:10.888Z,8.71
2023-11-05T06:10:37.904Z,8.72
2023-11-05T06:13:04.508Z,8.75
2023-11-05T06:15:34.252Z,8.74
2023-11-05T06:18:01.203Z,8.73
2023-11-05T06:20:27.898Z,8.76
2023-11-05T06:22:57.421Z,8.78
2023-11-05T06:25:24.116Z,8.77
2023-11-05T06:27:50.646Z,8.78
2023-11-05T06:30:17.305Z,8.78
2023-11-05T06:32:43.932Z,8.79
2023-11-05T06:35:11.263Z,8.78
2023-11-05T06:37:37.855Z,8.79
2023-11-05T06:40:06.429Z,8.80
2023-11-05T06:42:33.624Z,8.81
2023-11-05T06:45:00.207Z,8.81
2023-11-05T06:47:26.889Z,8.82
2023-11-05T06:49:53.520Z,8.82
2023-11-05T06:52:20.261Z,8.83
2023-11-05T06:54:46.818Z,8.85
2023-11-05T06:57:13.406Z,8.85
2023-11-05T06:59:40.047Z,8.85
2023-11-05T07:02:11.576Z,8.86
2023-11-05T07:04:41.203Z,8.87
2023-11-05T07:07:07.937Z,8.87
2023-11-05T07:09:34.730Z,8.88
2023-11-05T07:12:01.266Z,8.90
2023-11-05T07:14:27.853Z,8.90
2023-11-05T07:16:54.498Z,8.89
2023-11-05T07:19:21.161Z,8.91
2023-11-05T07:21:47.769Z,8.96
2023-11-05T07:24:17.641Z,8.98
2023-11-05T07:26:44.732Z,8.99
2023-11-05T07:29:15.329Z,8.99
2023-11-05T07:31:43.083Z,9.02
2023-11-05T07:34:11.956Z,9.03
2023-11-05T07:36:39.829Z,9.08
2023-11-05T07:39:11.482Z,9.13
2023-11-05T07:41:39.133Z,9.14
2023-11-05T07:44:06.653Z,9.17
2023-11-05T07:46:35.142Z,9.21
2023-11-05T07:49:02.783Z,9.24
2023-11-05T07:51:38.736Z,9.28
2023-11-05T07:54:06.763Z,9.33
2023-11-05T07:56:33.520Z,9.35
2023-11-05T07:59:05.651Z,9.39
2023-11-05T08:01:33.796Z,9.40
2023-11-05T08:04:02.885Z,9.42
2023-11-05T08:06:34.518Z,9.44
2023-11-05T08:09:07.974Z,9.43
2023-11-05T08:11:37.337Z,9.41
2023-11-05T08:14:27.200Z,9.42
2023-11-05T08:17:02.777Z,9.47
2023-11-05T08:19:33.954Z,9.49
2023-11-05T08:22:02.682Z,9.53
2023-11-05T08:24:29.727Z,9.57
2023-11-05T08:26:57.068Z,9.61
2023-11-05T08:29:35.045Z,9.66
2023-11-05T08:32:11.248Z,9.71
2023-11-05T08:35:00.342Z,9.75
2023-11-05T08:37:38.966Z,9.77
2023-11-05T08:40:09.378Z,9.78
2023-11-05T08:42:38.086Z,9.78
2023-11-05T08:45:11.218Z,9.82
2023-11-05T08:47:38.084Z,9.91
2023-11-05T08:50:14.147Z,9.94
2023-11-05T08:52:56.966Z,9.97
2023-11-05T08:55:32.975Z,9.95
2023-11-05T08:57:59.683Z,9.94
2023-11-05T09:00:27.443Z,9.93
2023-11-05T09:02:56.817Z,9.93
2023-11-05T09:05:26.725Z,9.93
2023-11-05T09:07:59.596Z,9.96
2023-11-05T09:10:28.157Z,9.98
2023-11-05T09:12:55.461Z,10.07
2023-11-05T09:15:22.644Z,10.17
2023-11-05T09:17:49.568Z,10.26
2023-11-05T09:20:16.505Z,10.23
2023-11-05T09:22:43.404Z,10.27
2023-11-05T09:25:10.700Z,10.27
2023-11-05T09:27:40.620Z,10.34
2023-11-05T09:30:16.443Z,10.48
2023-11-05T09:32:46.725Z,10.51
2023-11-05T09:38:09.773Z,10.52
2023-11-05T09:40:41.501Z,10.65
2023-11-05T09:43:35.322Z,10.88
2023-11-05T09:49:13.371Z,10.94
2023-11-05T09:52:24.306Z,10.83
2023-11-05T09:55:23.324Z,10.69
2023-11-05T09:58:13.434Z,10.70
2023-11-05T10:00:40.587Z,10.63
2023-11-05T10:07:12.411Z,10.54
2023-11-05T10:10:00.148Z,10.46
2023-11-05T10:12:41.812Z,10.37
2023-11-05T10:15:31.717Z,10.31
2023-11-05T10:18:03.445Z,10.30
2023-11-05T10:21:03.454Z,10.27
2023-11-05T10:23:50.179Z,10.27
2023-11-05T10:26:55.240Z,10.28
2023-11-05T10:29:36.862Z,10.26
2023-11-05T10:32:08.162Z,10.34
2023-11-05T10:34:44.482Z,10.32
2023-11-05T10:37:19.778Z,10.28
2023-11-05T10:39:53.716Z,10.23
2023-11-05T10:42:23.873Z,10.24
2023-11-05T10:44:50.969Z,10.28
2023-11-05T10:47:18.719Z,10.28
2023-11-05T10:49:49.350Z,10.19
2023-11-05T10:52:20.349Z,10.23
2023-11-05T10:55:07.208Z,10.22
2023-11-05T10:57:42.467Z,10.18
2023-11-05T11:00:29.131Z,10.15
2023-11-05T11:03:00.650Z,10.15
2023-11-05T11:06:01.033Z,10.19
2023-11-05T11:08:30.683Z,10.25
2023-11-05T11:11:09.210Z,10.30
2023-11-05T11:13:38.079Z,10.31
2023-11-05T11:16:05.244Z,10.32
2023-11-05T11:18:33.919Z,10.34
2023-11-05T11:21:02.457Z,10.32
2023-11-05T11:23:29.463Z,10.31
2023-11-05T11:25:58.970Z,10.31
2023-11-05T11:28:26.476Z,10.27
2023-11-05T11:30:53.439Z,10.28
2023-11-05T11:33:21.255Z,10.31
2023-11-05T11:35:48.418Z,10.40
2023-11-05T11:38:15.277Z,10.57
2023-11-05T11:40:42.018Z,10.74
2023-11-05T11:43:09.338Z,10.86
2023-11-05T11:45:36.335Z,10.92
2023-11-05T11:48:06.439Z,11.01
2023-11-05T11:50:33.414Z,11.06
2023-11-05T11:53:00.152Z,11.08
2023-11-05T11:55:27.253Z,11.15
2023-11-05T11:57:54.035Z,11.31
2023-11-05T12:00:21.625Z,11.44
2023-11-05T12:02:52.719Z,11.51
2023-11-05T12:05:23.037Z,11.40
2023-11-05T12:07:51.277Z,11.37
2023-11-05T12:10:19.977Z,11.31
2023-11-05T12:12:48.575Z,11.24
2023-11-05T12:15:16.815Z,11.23
2023-11-05T12:17:52.977Z,11.20
2023-11-05T12:20:19.682Z,11.18
2023-11-05T12:22:49.495Z,11.21
2023-11-05T12:25:16.414Z,11.30
2023-11-05T12:27:50.331Z,11.33
2023-11-05T12:30:21.856Z,11.40
2023-11-05T12:32:52.170Z,11.30
2023-11-05T12:35:19.437Z,11.22
2023-11-05T12:37:46.487Z,11.17
2023-11-05T12:40:15.377Z,11.18
2023-11-05T12:42:42.540Z,11.12
2023-11-05T12:45:10.531Z,10.91
2023-11-05T12:47:37.403Z,10.79
2023-11-05T12:50:04.426Z,10.73
2023-11-05T12:52:31.017Z,10.69
2023-11-05T12:54:57.730Z,10.56
2023-11-05T12:57:24.496Z,10.55
2023-11-05T12:59:51.104Z,10.61
2023-11-05T13:02:17.848Z,10.70
2023-11-05T13:04:46.161Z,10.80
2023-11-05T13:07:13.090Z,10.71
2023-11-05T13:09:39.761Z,10.62
2023-11-05T13:12:06.868Z,10.66
2023-11-05T13:14:34.086Z,10.83
2023-11-05T13:17:09.084Z,10.81
2023-11-05T13:19:35.805Z,10.89
2023-11-05T13:22:02.593Z,10.91
2023-11-05T13:24:29.151Z,10.95
2023-11-05T13:26:55.712Z,10.96
2023-11-05T13:29:25.976Z,10.86
2023-11-05T13:31:52.920Z,10.79
2023-11-05T13:34:19.525Z,10.69
2023-11-05T13:36:48.001Z,10.66
2023-11-05T13:39:14.646Z,10.64
2023-11-05T13:41:41.596Z,10.64
2023-11-05T13:44:09.317Z,10.59
2023-11-05T13:46:38.286Z,10.61
2023-11-05T13:49:05.164Z,10.69
2023-11-05T13:51:31.694Z,10.81
2023-11-05T13:53:59.094Z,10.75
2023-11-05T13:56:25.792Z,10.69
2023-11-05T13:58:52.467Z,10.63
2023-11-05T14:01:19.285Z,10.64
2023-11-05T14:03:46.059Z,10.65
2023-11-05T14:06:13.183Z,10.57
2023-11-05T14:08:42.813Z,10.52
2023-11-05T14:11:09.452Z,10.43
2023-11-05T14:13:36.096Z,10.36
2023-11-05T14:16:02.723Z,10.34
2023-11-05T14:18:29.286Z,10.33
2023-11-05T14:20:55.800Z,10.27
2023-11-05T14:23:23.348Z,10.26
2023-11-05T14:25:50.273Z,10.27
2023-11-05T14:28:16.950Z,10.26
2023-11-05T14:30:45.712Z,10.23
2023-11-05T14:33:12.577Z,10.21
2023-11-05T14:35:39.276Z,10.21
2023-11-05T14:38:06.072Z,10.23
2023-11-05T14:40:32.847Z,10.21
2023-11-05T14:42:59.523Z,10.16
2023-11-05T14:45:28.498Z,10.15
2023-11-05T14:47:56.524Z,10.13
2023-11-05T14:50:42.702Z,10.08
2023-11-05T14:53:09.316Z,10.08
2023-11-05T14:55:35.977Z,10.06
2023-11-05T14:58:02.606Z,10.03
2023-11-05T15:00:29.200Z,10.04
2023-11-05T15:02:55.935Z,10.03
2023-11-05T15:05:24.286Z,10.00
2023-11-05T15:07:52.242Z,9.99
2023-11-05T15:10:19.569Z,9.99
2023-11-05T15:12:46.159Z,9.99
2023-11-05T15:15:12.680Z,9.99
2023-11-05T15:17:39.453Z,9.98
2023-11-05T15:20:08.848Z,9.98
2023-11-05T15:22:35.498Z,9.93
2023-11-05T15:25:02.207Z,9.91
2023-11-05T15:27:29.014Z,9.90
2023-11-05T15:29:55.482Z,9.90
2023-11-05T15:32:22.107Z,9.90
2023-11-05T15:34:48.671Z,9.92
2023-11-05T15:37:15.583Z,9.92
2023-11-05T15:39:43.448Z,9.94
2023-11-05T15:42:10.060Z,9.91
2023-11-05T15:44:37.511Z,9.89
2023-11-05T15:47:04.487Z,9.90
2023-11-05T15:49:31.167Z,9.90
2023-11-05T15:51:58.157Z,9.89
2023-11-05T15:54:24.719Z,9.89
2023-11-05T15:56:51.567Z,9.90
2023-11-05T15:59:18.163Z,9.89
2023-11-05T16:01:46.385Z,9.89
2023-11-05T16:04:13.142Z,9.83
2023-11-05T16:06:39.855Z,9.72
2023-11-05T16:09:08.466Z,9.68
2023-11-05T16:11:35.083Z,9.65
2023-11-05T16:14:01.944Z,9.64
2023-11-05T16:16:28.701Z,9.63
2023-11-05T16:18:55.335Z,9.61
2023-11-05T16:21:22.072Z,9.62
2023-11-05T16:23:48.674Z,9.60
2023-11-05T16:26:15.315Z,9.59
2023-11-05T16:28:41.973Z,9.57
2023-11-05T16:31:08.621Z,9.58
2023-11-05T16:33:35.242Z,9.56
2023-11-05T16:36:02.719Z,9.54
2023-11-05T16:38:29.378Z,9.52
2023-11-05T16:40:56.283Z,9.52
2023-11-05T16:43:22.947Z,9.52
2023-11-05T16:45:49.495Z,9.48
2023-11-05T16:48:16.330Z,9.52
2023-11-05T16:50:42.958Z,9.52
2023-11-05T16:53:09.673Z,9.54
2023-11-05T16:55:36.389Z,9.54
2023-11-05T16:58:02.995Z,9.60
2023-11-05T17:00:29.609Z,9.59
2023-11-05T17:02:57.210Z,9.57
2023-11-05T17:05:24.255Z,9.60
2023-11-05T17:07:50.978Z,9.66
2023-11-05T17:10:17.509Z,9.69
2023-11-05T17:12:44.099Z,9.65
2023-11-05T17:15:11.054Z,9.57
2023-11-05T17:17:38.267Z,9.56
2023-11-05T17:20:08.488Z,9.56
2023-11-05T17:22:35.558Z,9.60
2023-11-05T17:25:02.324Z,9.59
2023-11-05T17:27:28.882Z,9.60
2023-11-05T17:29:55.390Z,9.65
2023-11-05T17:32:21.955Z,9.70
2023-11-05T17:34:48.683Z,9.67
2023-11-05T17:37:15.551Z,9.61
2023-11-05T17:39:42.134Z,9.57
2023-11-05T17:42:08.977Z,9.61
2023-11-05T17:44:35.629Z,9.73
2023-11-05T17:47:02.288Z,9.62
2023-11-05T17:49:29.022Z,9.67
2023-11-05T17:51:56.009Z,9.61
2023-11-05T17:54:22.775Z,9.58
2023-11-05T17:56:49.673Z,9.57
2023-11-05T17:59:16.256Z,9.53
2023-11-05T18:01:42.818Z,9.43
2023-11-05T18:04:09.635Z,9.42
2023-11-05T18:06:42.606Z,9.39
2023-11-05T18:09:09.338Z,9.30
2023-11-05T18:11:42.197Z,9.31
2023-11-05T18:14:08.759Z,9.31
2023-11-05T18:16:35.641Z,9.31
2023-11-05T18:19:02.278Z,9.29
2023-11-05T18:21:29.034Z,9.24
2023-11-05T18:23:58.536Z,9.25
2023-11-05T18:26:25.084Z,9.32
2023-11-05T18:28:52.022Z,9.26
2023-11-05T18:31:22.243Z,9.22
2023-11-05T18:33:54.788Z,9.18
2023-11-05T18:36:21.877Z,9.12
2023-11-05T18:38:49.067Z,9.05
2023-11-05T18:41:16.366Z,9.01
2023-11-05T18:43:43.396Z,8.98
2023-11-05T18:46:19.666Z,9.02
2023-11-05T18:48:47.305Z,9.03
2023-11-05T18:51:14.417Z,8.98
2023-11-05T18:53:41.070Z,8.94
2023-11-05T18:56:09.078Z,8.97
2023-11-05T18:58:38.320Z,8.94
2023-11-05T19:01:04.934Z,8.98
2023-11-05T19:03:31.709Z,8.88
2023-11-05T19:05:58.651Z,8.86
2023-11-05T19:08:25.557Z,8.82
2023-11-05T19:10:53.386Z,8.90
2023-11-05T19:13:20.409Z,8.86
2023-11-05T19:15:47.137Z,8.84
2023-11-05T19:18:13.880Z,8.88
2023-11-05T19:20:40.668Z,8.84
2023-11-05T19:23:07.323Z,8.71
2023-11-05T19:25:34.109Z,8.68
2023-11-05T19:28:00.784Z,8.70
2023-11-05T19:30:27.404Z,8.77
2023-11-05T19:32:54.107Z,8.78
2023-11-05T19:35:20.904Z,8.86
2023-11-05T19:37:47.513Z,8.86
2023-11-05T19:40:14.541Z,8.90
2023-11-05T19:42:41.259Z,8.85
2023-11-05T19:45:09.448Z,8.87
2023-11-05T19:47:36.298Z,8.77
2023-11-05T19:50:03.602Z,8.69
2023-11-05T19:52:30.589Z,8.76
2023-11-05T19:54:57.144Z,8.78
2023-11-05T19:57:24.341Z,8.86
2023-11-05T19:59:51.223Z,8.84
2023-11-05T20:02:22.202Z,8.85
2023-11-05T20:04:50.234Z,8.79
2023-11-05T20:07:17.855Z,8.73
2023-11-05T20:09:44.950Z,8.69
2023-11-05T20:12:11.685Z,8.65
2023-11-05T20:14:38.851Z,8.70
2023-11-05T20:17:07.487Z,8.83
2023-11-05T20:19:35.494Z,8.86
2023-11-05T20:22:02.256Z,8.77
2023-11-05T20:24:30.235Z,8.70
2023-11-05T20:26:57.778Z,8.66
2023-11-05T20:29:24.486Z,8.73
2023-11-05T20:31:51.366Z,8.78
2023-11-05T20:34:22.152Z,8.84
2023-11-05T20:36:50.862Z,8.83
2023-11-05T20:39:18.470Z,8.71
2023-11-05T20:41:45.291Z,8.63
2023-11-05T20:44:12.037Z,8.60
2023-11-05T20:46:40.807Z,8.60
2023-11-05T20:49:07.746Z,8.69
2023-11-05T20:51:35.345Z,8.78
2023-11-05T20:54:02.870Z,8.87
2023-11-05T20:56:29.906Z,8.84
2023-11-05T20:58:56.950Z,8.85
2023-11-05T21:01:23.707Z,8.88
2023-11-05T21:03:50.708Z,8.72
2023-11-05T21:06:18.191Z,8.71
2023-11-05T21:08:46.374Z,8.79
2023-11-05T21:11:13.344Z,8.79
2023-11-05T21:13:43.834Z,8.86
2023-11-05T21:16:11.489Z,8.76
2023-11-05T21:18:38.657Z,8.69
2023-11-05T21:21:05.672Z,8.60
2023-11-05T21:23:32.569Z,8.62
2023-11-05T21:26:02.265Z,8.60
2023-11-05T21:32:13.211Z,8.56
2023-11-05T21:34:40.159Z,8.69
2023-11-05T21:37:07.184Z,8.77
2023-11-05T21:39:39.744Z,8.76
2023-11-05T21:42:06.828Z,8.74
2023-11-05T21:44:34.888Z,8.72
2023-11-05T21:47:02.836Z,8.81
2023-11-05T21:49:29.822Z,8.82
2023-11-05T21:51:56.600Z,8.82
2023-11-05T21:54:28.211Z,8.77
2023-11-05T21:56:55.158Z,8.86
2023-11-05T21:59:21.847Z,8.92
2023-11-05T22:01:48.874Z,8.88
2023-11-05T22:04:15.700Z,8.83
2023-11-05T22:06:42.446Z,8.74
2023-11-05T22:09:09.095Z,8.69
2023-11-05T22:11:35.644Z,8.67
2023-11-05T22:14:02.292Z,8.61
2023-11-05T22:16:29.049Z,8.58
2023-11-05T22:18:55.703Z,8.56
2023-11-05T22:21:22.292Z,8.50
2023-11-05T22:23:48.845Z,8.50
2023-11-05T22:26:15.606Z,8.50
2023-11-05T22:28:42.295Z,8.46
2023-11-05T22:31:08.994Z,8.46
2023-11-05T22:33:35.722Z,8.45
2023-11-05T22:36:02.445Z,8.44
2023-11-05T22:38:29.534Z,8.47
2023-11-05T22:40:56.325Z,8.47
2023-11-05T22:43:23.062Z,8.47
2023-11-05T22:45:49.761Z,8.47
2023-11-05T22:48:16.493Z,8.48
2023-11-05T22:50:43.235Z,8.47
2023-11-05T22:53:09.991Z,8.50
2023-11-05T22:55:36.635Z,8.51
2023-11-05T22:58:03.436Z,8.50
2023-11-05T23:00:31.733Z,8.49
2023-11-05T23:02:58.472Z,8.48
2023-11-05T23:05:26.888Z,8.45
2023-11-05T23:07:53.707Z,8.41
2023-11-05T23:10:20.397Z,8.46
2023-11-05T23:12:47.514Z,8.44
2023-11-05T23:15:14.121Z,8.47
2023-11-05T23:17:41.594Z,8.45
2023-11-05T23:20:09.128Z,8.45
2023-11-05T23:22:35.897Z,8.43
2023-11-05T23:25:02.609Z,8.43
2023-11-05T23:27:29.348Z,8.38
2023-11-05T23:29:55.963Z,8.34
2023-11-05T23:32:22.585Z,8.32
2023-11-05T23:34:50.195Z,8.31
2023-11-05T23:37:16.930Z,8.28
2023-11-05T23:39:46.738Z,8.33
2023-11-05T23:42:13.394Z,8.31
2023-11-05T23:44:44.641Z,8.26
2023-11-05T23:47:11.305Z,8.24
2023-11-05T23:49:37.800Z,8.23
2023-11-05T23:52:04.749Z,8.21
2023-11-05T23:54:32.547Z,8.19
2023-11-05T23:56:59.685Z,8.18
2023-11-05T23:59:26.226Z,8.19
